createdAt,value
2018-12-03T00:01:33.804Z,1.24
2018-12-03T00:04:18.912Z,1.19
2018-12-03T00:06:48.362Z,1.05
2018-12-03T00:09:17.521Z,1.62
2018-12-03T00:11:46.701Z,1.81
2018-12-03T00:14:15.763Z,1.92
2018-12-03T00:16:44.844Z,2.04
2018-12-03T00:19:13.939Z,1.90
2018-12-03T00:21:43.148Z,1.87
2018-12-03T00:24:12.199Z,1.75
2018-12-03T00:26:41.255Z,1.95
2018-12-03T00:29:10.476Z,2.05
2018-12-03T00:31:39.520Z,2.37
2018-12-03T00:34:08.560Z,2.20
2018-12-03T00:36:37.660Z,2.72
2018-12-03T00:39:08.398Z,2.57
2018-12-03T00:41:37.584Z,2.40
2018-12-03T00:44:06.899Z,2.15
2018-12-03T00:46:35.969Z,2.20
2018-12-03T00:49:04.999Z,2.39
2018-12-03T00:51:33.998Z,2.20
2018-12-03T00:54:03.094Z,1.86
2018-12-03T00:56:32.208Z,2.33
2018-12-03T00:59:01.303Z,2.70
2018-12-03T01:01:35.759Z,2.36
2018-12-03T01:04:05.379Z,2.24
2018-12-03T01:06:34.378Z,2.44
2018-12-03T01:09:03.507Z,2.41
2018-12-03T01:11:32.476Z,2.45
2018-12-03T01:14:01.525Z,2.80
2018-12-03T01:16:30.535Z,3.30
2018-12-03T01:18:59.643Z,3.00
2018-12-03T01:21:28.728Z,1.94
2018-12-03T01:23:57.849Z,1.71
2018-12-03T01:26:26.867Z,1.53
2018-12-03T01:28:55.904Z,1.51
2018-12-03T01:31:24.984Z,1.36
2018-12-03T01:33:53.997Z,1.26
2018-12-03T01:36:23.112Z,1.33
2018-12-03T01:38:52.164Z,1.27
2018-12-03T01:41:21.255Z,1.26
2018-12-03T01:43:50.375Z,1.20
2018-12-03T01:46:19.396Z,1.45
2018-12-03T01:48:48.478Z,1.44
2018-12-03T01:51:17.501Z,1.54
2018-12-03T01:53:46.610Z,1.58
2018-12-03T01:56:15.696Z,1.67
2018-12-03T01:58:44.851Z,1.74
2018-12-03T02:01:13.938Z,2.27
2018-12-03T02:03:43.047Z,2.55
2018-12-03T02:06:12.175Z,2.80
2018-12-03T02:08:41.218Z,2.19
2018-12-03T02:11:10.279Z,2.23
2018-12-03T02:13:39.307Z,2.19
2018-12-03T02:16:08.439Z,1.57
2018-12-03T02:18:37.488Z,1.77
2018-12-03T02:21:06.578Z,1.91
2018-12-03T02:23:35.629Z,1.71
2018-12-03T02:26:04.724Z,1.65
2018-12-03T02:28:33.848Z,1.49
2018-12-03T02:31:02.870Z,1.22
2018-12-03T02:33:31.877Z,1.12
2018-12-03T02:36:00.910Z,1.13
2018-12-03T02:38:29.996Z,1.00
2018-12-03T02:40:59.090Z,1.28
2018-12-03T02:43:28.131Z,1.30
2018-12-03T02:45:57.157Z,1.18
2018-12-03T02:48:26.180Z,1.16
2018-12-03T02:50:55.203Z,1.14
2018-12-03T02:53:24.272Z,1.19
2018-12-03T02:55:53.498Z,1.09
2018-12-03T02:58:22.506Z,1.29
2018-12-03T03:00:51.615Z,2.00
2018-12-03T03:03:20.617Z,2.52
2018-12-03T03:05:49.678Z,3.03
2018-12-03T03:08:18.689Z,3.16
2018-12-03T03:10:47.834Z,2.50
2018-12-03T03:13:16.977Z,2.02
2018-12-03T03:15:46.024Z,1.92
2018-12-03T03:18:15.033Z,1.56
2018-12-03T03:20:44.193Z,1.50
2018-12-03T03:23:13.242Z,1.24
2018-12-03T03:25:42.327Z,1.96
2018-12-03T03:28:11.344Z,1.96
2018-12-03T03:30:40.414Z,2.01
2018-12-03T03:33:09.493Z,1.56
2018-12-03T03:35:38.540Z,1.91
2018-12-03T03:38:07.636Z,1.44
2018-12-03T03:40:36.652Z,1.35
2018-12-03T03:43:06.122Z,1.52
2018-12-03T03:45:35.141Z,1.71
2018-12-03T03:48:04.240Z,1.23
2018-12-03T03:50:33.474Z,0.90
2018-12-03T03:53:02.502Z,0.76
2018-12-03T03:55:31.599Z,0.89
2018-12-03T03:58:00.641Z,0.90
2018-12-03T04:00:29.849Z,0.86
2018-12-03T04:02:59.001Z,1.04
2018-12-03T04:05:28.107Z,1.09
2018-12-03T04:07:57.284Z,1.53
2018-12-03T04:10:26.350Z,1.68
2018-12-03T04:12:55.450Z,1.72
2018-12-03T04:15:24.634Z,2.29
2018-12-03T04:17:53.716Z,2.33
2018-12-03T04:20:22.928Z,2.44
2018-12-03T04:22:54.305Z,2.81
2018-12-03T04:25:23.379Z,2.84
2018-12-03T04:27:52.450Z,2.85
2018-12-03T04:30:22.412Z,2.10
2018-12-03T04:32:52.416Z,1.77
2018-12-03T04:35:21.583Z,1.59
2018-12-03T04:37:50.597Z,1.16
2018-12-03T04:40:19.691Z,0.67
2018-12-03T04:42:48.705Z,0.58
2018-12-03T04:45:18.744Z,1.25
2018-12-03T04:47:49.026Z,1.44
2018-12-03T04:50:19.327Z,0.88
2018-12-03T04:52:48.392Z,0.93
2018-12-03T04:55:18.557Z,0.95
2018-12-03T04:57:47.796Z,0.84
2018-12-03T05:00:18.298Z,0.72
2018-12-03T05:02:53.066Z,0.51
2018-12-03T05:05:22.305Z,0.32
2018-12-03T05:07:51.612Z,0.13
2018-12-03T05:10:21.631Z,0.07
2018-12-03T05:12:52.150Z,0.36
2018-12-03T05:15:21.214Z,0.43
2018-12-03T05:17:50.347Z,0.11
2018-12-03T05:20:21.711Z,0.11
2018-12-03T05:22:50.811Z,0.12
2018-12-03T05:25:19.937Z,0.14
2018-12-03T05:27:48.986Z,0.45
2018-12-03T05:30:18.535Z,1.04
2018-12-03T05:32:48.006Z,1.22
2018-12-03T05:35:24.574Z,1.53
2018-12-03T05:37:53.720Z,1.86
2018-12-03T05:40:26.520Z,1.87
2018-12-03T05:42:55.893Z,1.90
2018-12-03T05:45:24.964Z,1.43
2018-12-03T05:47:54.026Z,1.54
2018-12-03T05:50:23.142Z,1.66
2018-12-03T05:52:52.191Z,1.70
2018-12-03T05:55:21.246Z,1.44
2018-12-03T05:57:50.437Z,1.13
2018-12-03T06:00:21.907Z,0.94
2018-12-03T06:02:50.981Z,0.45
2018-12-03T06:05:20.074Z,0.61
2018-12-03T06:07:49.212Z,0.68
2018-12-03T06:10:21.194Z,0.65
2018-12-03T06:12:50.364Z,0.65
2018-12-03T06:15:20.277Z,0.51
2018-12-03T06:17:50.576Z,0.50
2018-12-03T06:20:20.695Z,0.61
2018-12-03T06:22:51.322Z,0.53
2018-12-03T06:25:21.743Z,0.62
2018-12-03T06:27:51.160Z,0.62
2018-12-03T06:30:22.253Z,0.53
2018-12-03T06:32:51.413Z,0.54
2018-12-03T06:35:20.877Z,1.05
2018-12-03T06:37:50.307Z,1.30
2018-12-03T06:40:24.403Z,2.07
2018-12-03T06:42:53.712Z,2.21
2018-12-03T06:45:23.633Z,2.69
2018-12-03T06:48:00.982Z,3.32
2018-12-03T06:50:30.051Z,3.45
2018-12-03T06:52:59.154Z,3.26
2018-12-03T06:55:28.179Z,3.44
2018-12-03T06:57:57.215Z,3.74
2018-12-03T07:00:26.836Z,3.80
2018-12-03T07:02:55.964Z,3.90
2018-12-03T07:05:24.962Z,4.07
2018-12-03T07:07:55.620Z,3.78
2018-12-03T07:10:25.511Z,3.78
2018-12-03T07:13:01.768Z,3.48
2018-12-03T07:15:33.016Z,3.06
2018-12-03T07:18:02.080Z,3.15
2018-12-03T07:20:31.126Z,3.11
2018-12-03T07:23:00.188Z,3.28
2018-12-03T07:25:29.239Z,3.65
2018-12-03T07:31:33.576Z,3.91
2018-12-03T07:34:03.456Z,4.10
2018-12-03T07:36:31.945Z,4.04
2018-12-03T07:39:00.968Z,3.79
2018-12-03T07:41:30.032Z,3.54
2018-12-03T07:43:59.047Z,4.25
2018-12-03T07:46:28.099Z,3.74
2018-12-03T07:48:57.124Z,4.32
2018-12-03T07:51:26.157Z,4.55
2018-12-03T07:53:56.708Z,5.01
2018-12-03T07:56:26.400Z,4.87
2018-12-03T07:58:55.485Z,4.77
2018-12-03T08:01:25.089Z,5.26
2018-12-03T08:03:55.112Z,5.29
2018-12-03T08:06:25.224Z,4.86
2018-12-03T08:08:54.241Z,5.18
2018-12-03T08:11:23.281Z,4.21
2018-12-03T08:13:52.351Z,4.33
2018-12-03T08:16:21.467Z,3.90
2018-12-03T08:18:50.688Z,4.36
2018-12-03T08:21:19.709Z,4.52
2018-12-03T08:23:54.349Z,5.09
2018-12-03T08:26:23.673Z,5.11
2018-12-03T08:28:52.630Z,5.19
2018-12-03T08:31:21.662Z,5.32
2018-12-03T08:33:50.661Z,5.68
2018-12-03T08:36:19.692Z,5.88
2018-12-03T08:38:48.733Z,5.73
2018-12-03T08:41:17.887Z,6.00
2018-12-03T08:43:46.947Z,5.62
2018-12-03T08:46:16.040Z,5.54
2018-12-03T08:48:45.062Z,5.70
2018-12-03T08:51:14.143Z,5.53
2018-12-03T08:53:46.373Z,5.67
2018-12-03T08:56:15.403Z,6.20
2018-12-03T08:58:44.451Z,6.39
2018-12-03T09:01:16.674Z,6.16
2018-12-03T09:03:48.707Z,6.09
2018-12-03T09:06:19.326Z,5.93
2018-12-03T09:08:49.792Z,6.35
2018-12-03T09:11:23.005Z,6.05
2018-12-03T09:13:57.025Z,6.53
2018-12-03T09:16:26.117Z,6.72
2018-12-03T09:18:55.899Z,6.94
2018-12-03T09:21:25.908Z,6.65
2018-12-03T09:23:57.863Z,6.83
2018-12-03T09:26:27.755Z,6.27
2018-12-03T09:28:57.056Z,6.67
2018-12-03T09:31:26.112Z,7.21
2018-12-03T09:33:57.504Z,7.02
2018-12-03T09:36:27.241Z,7.41
2018-12-03T09:39:13.112Z,7.29
2018-12-03T09:41:42.695Z,7.28
2018-12-03T09:44:11.906Z,7.44
2018-12-03T09:46:41.959Z,6.93
2018-12-03T09:49:10.990Z,7.21
2018-12-03T09:51:39.950Z,7.79
2018-12-03T09:54:10.810Z,7.25
2018-12-03T09:56:45.557Z,7.77
2018-12-03T09:59:16.659Z,7.93
2018-12-03T10:01:47.089Z,7.62
2018-12-03T10:04:25.472Z,7.50
2018-12-03T10:06:54.563Z,7.90
2018-12-03T10:09:23.587Z,7.95
2018-12-03T10:11:56.904Z,7.47
2018-12-03T10:14:25.979Z,7.83
2018-12-03T10:16:55.009Z,8.26
2018-12-03T10:19:24.086Z,8.58
2018-12-03T10:21:53.136Z,8.28
2018-12-03T10:24:22.377Z,8.88
2018-12-03T10:26:51.995Z,9.05
2018-12-03T10:29:21.009Z,8.97
2018-12-03T10:31:50.054Z,8.39
2018-12-03T10:34:20.151Z,8.82
2018-12-03T10:36:51.975Z,7.88
2018-12-03T10:39:24.323Z,7.72
2018-12-03T10:41:58.445Z,8.39
2018-12-03T10:44:27.469Z,8.53
2018-12-03T10:46:58.653Z,8.60
2018-12-03T10:49:27.671Z,8.80
2018-12-03T10:51:56.802Z,9.00
2018-12-03T10:54:25.831Z,9.43
2018-12-03T10:56:54.886Z,9.14
2018-12-03T10:59:24.067Z,8.91
2018-12-03T11:01:55.383Z,8.87
2018-12-03T11:04:29.574Z,9.18
2018-12-03T11:06:58.660Z,8.82
2018-12-03T11:09:33.111Z,8.95
2018-12-03T11:11:58.095Z,8.89
2018-12-03T11:14:27.365Z,8.42
2018-12-03T11:16:56.432Z,7.69
2018-12-03T11:19:25.616Z,8.52
2018-12-03T11:21:54.842Z,9.03
2018-12-03T11:24:23.952Z,9.52
2018-12-03T11:26:56.292Z,9.43
2018-12-03T11:29:25.582Z,9.20
2018-12-03T11:31:54.924Z,8.88
2018-12-03T11:34:25.090Z,9.28
2018-12-03T11:36:57.303Z,8.75
2018-12-03T11:39:43.955Z,9.40
2018-12-03T11:42:13.791Z,9.23
2018-12-03T11:44:42.907Z,9.62
2018-12-03T11:47:14.987Z,9.78
2018-12-03T11:49:44.109Z,9.82
2018-12-03T11:52:13.507Z,9.66
2018-12-03T11:54:42.754Z,9.71
2018-12-03T11:57:20.458Z,9.48
2018-12-03T11:59:52.555Z,9.96
2018-12-03T12:02:22.236Z,9.58
2018-12-03T12:04:51.521Z,9.65
2018-12-03T12:07:20.971Z,9.71
2018-12-03T12:09:51.454Z,9.97
2018-12-03T12:12:21.136Z,9.47
2018-12-03T12:14:50.214Z,8.91
2018-12-03T12:17:19.310Z,8.94
2018-12-03T12:19:48.354Z,9.23
2018-12-03T12:22:17.340Z,9.31
2018-12-03T12:24:46.324Z,9.03
2018-12-03T12:27:15.335Z,9.37
2018-12-03T12:29:44.382Z,9.16
2018-12-03T12:32:13.353Z,9.89
2018-12-03T12:34:42.383Z,9.91
2018-12-03T12:37:11.343Z,10.19
2018-12-03T12:39:40.354Z,9.92
2018-12-03T12:42:09.449Z,9.63
2018-12-03T12:44:38.455Z,9.68
2018-12-03T12:47:07.852Z,9.90
2018-12-03T12:49:36.964Z,10.05
2018-12-03T12:52:06.947Z,9.69
2018-12-03T12:54:35.972Z,9.44
2018-12-03T12:57:05.082Z,9.59
2018-12-03T12:59:34.127Z,9.38
2018-12-03T13:02:03.228Z,10.03
2018-12-03T13:04:32.357Z,10.15
2018-12-03T13:07:01.981Z,9.99
2018-12-03T13:09:31.016Z,9.94
2018-12-03T13:12:00.158Z,10.07
2018-12-03T13:14:29.216Z,9.49
2018-12-03T13:16:58.429Z,9.22
2018-12-03T13:19:27.550Z,8.85
2018-12-03T13:21:56.544Z,9.09
2018-12-03T13:24:25.572Z,9.20
2018-12-03T13:26:54.716Z,9.44
2018-12-03T13:29:23.721Z,9.37
2018-12-03T13:31:57.589Z,9.01
2018-12-03T13:34:27.361Z,9.08
2018-12-03T13:36:59.667Z,9.16
2018-12-03T13:39:37.576Z,9.33
2018-12-03T13:42:13.138Z,9.25
2018-12-03T13:44:46.593Z,9.62
2018-12-03T13:47:25.912Z,9.54
2018-12-03T13:49:55.000Z,10.13
2018-12-03T13:52:24.143Z,9.39
2018-12-03T13:54:53.406Z,9.11
2018-12-03T13:57:23.407Z,8.60
2018-12-03T13:59:52.748Z,8.62
2018-12-03T14:02:22.561Z,8.55
2018-12-03T14:04:52.600Z,8.46
2018-12-03T14:07:35.557Z,8.28
2018-12-03T14:10:53.077Z,8.14
2018-12-03T14:14:35.205Z,8.28
2018-12-03T14:17:18.471Z,8.34
2018-12-03T14:19:52.561Z,8.47
2018-12-03T14:22:25.159Z,8.38
2018-12-03T14:24:54.520Z,8.15
2018-12-03T14:27:25.647Z,7.92
2018-12-03T14:29:57.082Z,7.66
2018-12-03T14:32:29.285Z,7.49
2018-12-03T14:35:02.590Z,7.42
2018-12-03T14:37:32.602Z,7.17
2018-12-03T14:40:02.615Z,7.08
2018-12-03T14:42:31.787Z,6.95
2018-12-03T14:45:00.875Z,6.92
2018-12-03T14:47:29.941Z,6.69
2018-12-03T14:49:59.222Z,6.72
2018-12-03T14:52:28.368Z,6.82
2018-12-03T14:54:57.440Z,6.84
2018-12-03T14:57:26.599Z,6.63
2018-12-03T14:59:55.651Z,6.59
2018-12-03T15:02:24.630Z,6.55
2018-12-03T15:04:53.729Z,6.59
2018-12-03T15:07:22.795Z,6.38
2018-12-03T15:09:51.949Z,6.14
2018-12-03T15:12:21.079Z,5.98
2018-12-03T15:14:50.213Z,5.90
2018-12-03T15:17:19.273Z,5.72
2018-12-03T15:19:48.408Z,5.91
2018-12-03T15:22:17.451Z,5.72
2018-12-03T15:24:47.572Z,5.68
2018-12-03T15:27:15.731Z,5.64
2018-12-03T15:29:44.729Z,5.73
2018-12-03T15:32:13.822Z,5.79
2018-12-03T15:34:42.919Z,5.78
2018-12-03T15:37:12.020Z,5.79
2018-12-03T15:39:41.019Z,5.63
2018-12-03T15:42:10.201Z,5.86
2018-12-03T15:44:39.212Z,6.20
2018-12-03T15:47:08.408Z,5.85
2018-12-03T15:49:37.734Z,6.17
2018-12-03T15:52:06.803Z,6.58
2018-12-03T15:54:35.865Z,6.53
2018-12-03T15:57:05.053Z,6.42
2018-12-03T15:59:34.097Z,6.35
2018-12-03T16:02:03.181Z,5.98
2018-12-03T16:04:32.272Z,6.14
2018-12-03T16:07:01.285Z,6.05
2018-12-03T16:09:30.317Z,6.08
2018-12-03T16:11:59.386Z,5.91
2018-12-03T16:14:28.407Z,5.85
2018-12-03T16:16:57.435Z,5.73
2018-12-03T16:19:26.531Z,5.89
2018-12-03T16:21:55.530Z,5.86
2018-12-03T16:24:24.577Z,5.80
2018-12-03T16:26:53.752Z,5.95
2018-12-03T16:29:24.329Z,5.85
2018-12-03T16:31:53.712Z,5.87
2018-12-03T16:34:24.095Z,5.85
2018-12-03T16:36:53.821Z,5.93
2018-12-03T16:39:22.268Z,5.82
2018-12-03T16:41:52.274Z,5.78
2018-12-03T16:44:23.700Z,5.75
2018-12-03T16:46:53.114Z,5.88
2018-12-03T16:49:23.017Z,6.01
2018-12-03T16:51:55.068Z,5.78
2018-12-03T16:54:25.896Z,5.87
2018-12-03T16:56:56.184Z,5.94
2018-12-03T16:59:25.228Z,5.84
2018-12-03T17:01:54.210Z,5.57
2018-12-03T17:04:24.193Z,5.69
2018-12-03T17:06:53.291Z,5.65
2018-12-03T17:09:23.427Z,5.44
2018-12-03T17:11:52.666Z,5.44
2018-12-03T17:14:21.929Z,5.56
2018-12-03T17:16:51.216Z,5.47
2018-12-03T17:19:20.656Z,5.62
2018-12-03T17:22:00.032Z,5.33
2018-12-03T17:24:35.141Z,5.56
2018-12-03T17:27:04.475Z,5.64
2018-12-03T17:29:33.663Z,5.62
2018-12-03T17:32:03.095Z,5.57
2018-12-03T17:34:32.141Z,5.35
2018-12-03T17:37:01.300Z,5.38
2018-12-03T17:39:30.600Z,5.14
2018-12-03T17:41:59.934Z,5.03
2018-12-03T17:44:29.078Z,4.86
2018-12-03T17:46:58.335Z,5.36
2018-12-03T17:49:27.588Z,5.12
2018-12-03T17:51:56.864Z,5.17
2018-12-03T17:54:26.228Z,5.53
2018-12-03T17:56:56.267Z,5.46
2018-12-03T17:59:26.968Z,5.34
2018-12-03T18:01:56.290Z,5.47
2018-12-03T18:04:25.955Z,5.39
2018-12-03T18:06:55.610Z,5.43
2018-12-03T18:09:25.026Z,5.60
2018-12-03T18:11:54.218Z,5.31
2018-12-03T18:14:23.594Z,5.63
2018-12-03T18:16:53.360Z,5.45
2018-12-03T18:19:25.324Z,5.38
2018-12-03T18:21:56.910Z,5.58
2018-12-03T18:24:25.993Z,5.27
2018-12-03T18:26:55.213Z,5.20
2018-12-03T18:29:25.414Z,5.00
2018-12-03T18:35:09.820Z,4.91
2018-12-03T18:38:18.710Z,4.73
2018-12-03T18:40:54.890Z,4.86
2018-12-03T18:43:24.027Z,4.92
2018-12-03T18:45:53.111Z,4.82
2018-12-03T18:48:22.300Z,4.87
2018-12-03T18:50:53.622Z,4.82
2018-12-03T18:53:26.193Z,5.08
2018-12-03T18:55:55.449Z,5.18
2018-12-03T18:58:33.454Z,5.16
2018-12-03T19:01:03.360Z,5.04
2018-12-03T19:03:34.818Z,5.22
2018-12-03T19:06:05.175Z,5.01
2018-12-03T19:08:34.255Z,5.18
2018-12-03T19:11:04.525Z,5.06
2018-12-03T19:13:35.758Z,5.01
2018-12-03T19:16:05.404Z,4.97
2018-12-03T19:18:34.800Z,5.12
2018-12-03T19:21:03.856Z,4.98
2018-12-03T19:23:33.161Z,5.04
2018-12-03T19:26:02.939Z,4.96
2018-12-03T19:28:31.303Z,5.27
2018-12-03T19:31:05.960Z,5.12
2018-12-03T19:33:36.061Z,5.38
2018-12-03T19:36:05.404Z,5.20
2018-12-03T19:38:34.575Z,5.04
2018-12-03T19:41:03.711Z,5.17
2018-12-03T19:43:32.737Z,5.44
2018-12-03T19:46:01.848Z,5.14
2018-12-03T19:48:47.845Z,5.08
2018-12-03T19:51:16.955Z,5.20
2018-12-03T19:53:46.411Z,4.99
2018-12-03T19:56:15.467Z,5.04
2018-12-03T19:58:49.466Z,4.62
2018-12-03T20:01:19.443Z,4.75
2018-12-03T20:03:58.198Z,4.67
2018-12-03T20:06:28.682Z,4.77
2018-12-03T20:08:59.593Z,4.83
2018-12-03T20:11:30.429Z,4.88
2018-12-03T20:14:06.087Z,4.91
2018-12-03T20:16:35.427Z,4.98
2018-12-03T20:19:06.353Z,5.00
2018-12-03T20:21:37.603Z,5.08
2018-12-03T20:24:10.273Z,4.93
2018-12-03T20:26:49.411Z,4.63
2018-12-03T20:29:31.696Z,5.02
2018-12-03T20:32:20.535Z,4.71
2018-12-03T20:35:12.220Z,3.41
2018-12-03T20:37:58.547Z,4.29
2018-12-03T20:42:28.644Z,4.68
2018-12-03T20:45:15.500Z,5.21
2018-12-03T20:47:48.239Z,4.66
2018-12-03T20:50:28.006Z,4.70
2018-12-03T20:52:57.220Z,4.29
2018-12-03T20:55:30.028Z,4.00
2018-12-03T20:57:59.411Z,3.86
2018-12-03T21:00:28.521Z,3.74
2018-12-03T21:03:00.098Z,3.73
2018-12-03T21:05:29.210Z,3.64
2018-12-03T21:07:58.321Z,3.68
2018-12-03T21:10:27.721Z,3.64
2018-12-03T21:12:56.846Z,3.71
2018-12-03T21:15:26.249Z,3.75
2018-12-03T21:17:55.345Z,3.77
2018-12-03T21:20:32.741Z,3.70
2018-12-03T21:23:01.925Z,3.86
2018-12-03T21:25:31.042Z,3.84
2018-12-03T21:28:00.108Z,4.28
2018-12-03T21:30:29.237Z,4.07
2018-12-03T21:32:58.359Z,4.19
2018-12-03T21:35:27.467Z,3.97
2018-12-03T21:37:57.332Z,3.85
2018-12-03T21:40:26.401Z,3.98
2018-12-03T21:42:55.598Z,4.05
2018-12-03T21:45:24.679Z,4.16
2018-12-03T21:47:53.729Z,4.58
2018-12-03T21:50:22.824Z,3.74
2018-12-03T21:52:51.897Z,3.44
2018-12-03T21:55:21.021Z,3.32
2018-12-03T21:57:50.461Z,3.16
2018-12-03T22:00:20.661Z,3.11
2018-12-03T22:02:49.716Z,3.03
2018-12-03T22:05:18.900Z,3.13
2018-12-03T22:07:47.933Z,3.05
2018-12-03T22:10:17.098Z,3.00
2018-12-03T22:12:47.459Z,2.84
2018-12-03T22:15:16.504Z,2.79
2018-12-03T22:17:45.659Z,2.76
2018-12-03T22:20:14.802Z,2.85
2018-12-03T22:22:43.882Z,2.91
2018-12-03T22:25:13.007Z,2.88
2018-12-03T22:27:42.037Z,2.83
2018-12-03T22:30:11.786Z,2.82
2018-12-03T22:32:40.919Z,2.82
2018-12-03T22:35:10.077Z,2.84
2018-12-03T22:37:39.147Z,2.87
2018-12-03T22:40:08.271Z,2.88
2018-12-03T22:42:37.345Z,2.87
2018-12-03T22:45:07.377Z,2.79
2018-12-03T22:47:36.552Z,2.81
2018-12-03T22:50:05.984Z,2.77
2018-12-03T22:52:35.108Z,2.78
2018-12-03T22:55:04.247Z,2.71
2018-12-03T22:57:33.324Z,2.52
2018-12-03T23:00:02.516Z,2.45
2018-12-03T23:02:31.708Z,2.49
2018-12-03T23:05:00.788Z,2.44
2018-12-03T23:07:29.857Z,2.41
2018-12-03T23:09:59.010Z,2.32
2018-12-03T23:12:28.100Z,2.40
2018-12-03T23:14:57.208Z,2.46
2018-12-03T23:17:26.368Z,2.44
2018-12-03T23:19:55.500Z,2.49
2018-12-03T23:22:24.613Z,2.57
2018-12-03T23:24:53.810Z,2.68
2018-12-03T23:27:23.002Z,2.88
2018-12-03T23:29:52.104Z,2.94
2018-12-03T23:32:21.256Z,2.90
2018-12-03T23:34:50.414Z,3.23
2018-12-03T23:37:19.685Z,3.54
2018-12-03T23:39:48.705Z,3.60
2018-12-03T23:42:17.884Z,3.27
2018-12-03T23:44:47.001Z,3.03
2018-12-03T23:47:16.149Z,2.82
2018-12-03T23:49:45.203Z,2.65
2018-12-03T23:52:14.487Z,2.55
2018-12-03T23:54:43.616Z,2.47
2018-12-03T23:57:12.687Z,2.58
2018-12-03T23:59:41.791Z,2.59
